sensor_id;sensor_type;location;lat;lon;timestamp;temperature;humidity
64670;DHT22;51080;51.690;5.174;2022-08-21T00:02:57;14.90;68.40
64670;DHT22;51080;51.690;5.174;2022-08-21T00:08:45;14.90;68.60
64670;DHT22;51080;51.690;5.174;2022-08-21T00:14:32;14.90;68.70
64670;DHT22;51080;51.690;5.174;2022-08-21T00:20:21;14.80;68.80
64670;DHT22;51080;51.690;5.174;2022-08-21T00:26:08;14.80;69.00
64670;DHT22;51080;51.690;5.174;2022-08-21T00:31:55;14.80;69.00
64670;DHT22;51080;51.690;5.174;2022-08-21T00:37:43;14.70;69.00
64670;DHT22;51080;51.690;5.174;2022-08-21T00:43:33;14.70;69.20
64670;DHT22;51080;51.690;5.174;2022-08-21T00:49:21;14.60;69.40
64670;DHT22;51080;51.690;5.174;2022-08-21T00:55:10;14.60;69.60
64670;DHT22;51080;51.690;5.174;2022-08-21T01:00:59;14.50;69.60
64670;DHT22;51080;51.690;5.174;2022-08-21T01:06:47;14.50;69.80
64670;DHT22;51080;51.690;5.174;2022-08-21T01:12:34;14.50;69.90
64670;DHT22;51080;51.690;5.174;2022-08-21T01:18:23;14.40;70.10
64670;DHT22;51080;51.690;5.174;2022-08-21T01:24:11;14.40;70.20
64670;DHT22;51080;51.690;5.174;2022-08-21T01:30:14;14.40;70.10
64670;DHT22;51080;51.690;5.174;2022-08-21T01:36:02;14.30;70.30
64670;DHT22;51080;51.690;5.174;2022-08-21T01:41:51;14.30;70.40
64670;DHT22;51080;51.690;5.174;2022-08-21T01:47:37;14.30;70.40
64670;DHT22;51080;51.690;5.174;2022-08-21T01:53:24;14.30;70.60
64670;DHT22;51080;51.690;5.174;2022-08-21T01:59:12;14.20;70.80
64670;DHT22;51080;51.690;5.174;2022-08-21T02:04:59;14.20;70.70
64670;DHT22;51080;51.690;5.174;2022-08-21T02:10:47;14.20;70.70
64670;DHT22;51080;51.690;5.174;2022-08-21T02:16:35;14.10;70.90
64670;DHT22;51080;51.690;5.174;2022-08-21T02:22:23;14.10;70.80
64670;DHT22;51080;51.690;5.174;2022-08-21T02:28:13;14.00;70.90
64670;DHT22;51080;51.690;5.174;2022-08-21T02:34:00;14.00;70.90
64670;DHT22;51080;51.690;5.174;2022-08-21T02:39:47;13.90;71.10
64670;DHT22;51080;51.690;5.174;2022-08-21T02:45:31;13.90;71.10
64670;DHT22;51080;51.690;5.174;2022-08-21T02:51:18;13.80;71.00
64670;DHT22;51080;51.690;5.174;2022-08-21T02:57:03;13.80;71.20
64670;DHT22;51080;51.690;5.174;2022-08-21T03:02:48;13.70;71.10
64670;DHT22;51080;51.690;5.174;2022-08-21T03:08:35;13.70;71.30
64670;DHT22;51080;51.690;5.174;2022-08-21T03:14:23;13.70;71.50
64670;DHT22;51080;51.690;5.174;2022-08-21T03:20:16;13.60;71.50
64670;DHT22;51080;51.690;5.174;2022-08-21T03:26:02;13.50;71.50
64670;DHT22;51080;51.690;5.174;2022-08-21T03:31:51;13.50;71.80
64670;DHT22;51080;51.690;5.174;2022-08-21T03:37:36;13.40;71.70
64670;DHT22;51080;51.690;5.174;2022-08-21T03:43:24;13.40;71.80
64670;DHT22;51080;51.690;5.174;2022-08-21T03:49:11;13.30;71.80
64670;DHT22;51080;51.690;5.174;2022-08-21T03:55:00;13.30;72.20
64670;DHT22;51080;51.690;5.174;2022-08-21T04:00:50;13.30;72.30
64670;DHT22;51080;51.690;5.174;2022-08-21T04:06:35;13.30;72.30
64670;DHT22;51080;51.690;5.174;2022-08-21T04:12:23;13.20;72.20
64670;DHT22;51080;51.690;5.174;2022-08-21T04:18:11;13.20;72.30
64670;DHT22;51080;51.690;5.174;2022-08-21T04:23:56;13.10;72.50
64670;DHT22;51080;51.690;5.174;2022-08-21T04:29:43;13.10;72.70
64670;DHT22;51080;51.690;5.174;2022-08-21T04:35:29;13.00;72.70
64670;DHT22;51080;51.690;5.174;2022-08-21T04:41:15;13.00;72.70
64670;DHT22;51080;51.690;5.174;2022-08-21T04:47:01;13.00;72.90
64670;DHT22;51080;51.690;5.174;2022-08-21T04:52:49;13.00;73.10
64670;DHT22;51080;51.690;5.174;2022-08-21T04:58:38;13.00;73.10
64670;DHT22;51080;51.690;5.174;2022-08-21T05:04:27;13.00;73.10
64670;DHT22;51080;51.690;5.174;2022-08-21T05:10:17;13.10;73.20
64670;DHT22;51080;51.690;5.174;2022-08-21T05:16:02;13.10;73.10
64670;DHT22;51080;51.690;5.174;2022-08-21T05:21:47;13.10;73.20
64670;DHT22;51080;51.690;5.174;2022-08-21T05:27:31;13.20;73.30
64670;DHT22;51080;51.690;5.174;2022-08-21T05:33:16;13.20;73.20
64670;DHT22;51080;51.690;5.174;2022-08-21T05:39:02;13.30;73.50
64670;DHT22;51080;51.690;5.174;2022-08-21T05:44:46;13.30;73.80
64670;DHT22;51080;51.690;5.174;2022-08-21T05:50:32;13.40;74.50
64670;DHT22;51080;51.690;5.174;2022-08-21T05:56:16;13.50;74.90
64670;DHT22;51080;51.690;5.174;2022-08-21T06:02:01;13.70;75.10
64670;DHT22;51080;51.690;5.174;2022-08-21T06:07:46;13.90;75.10
64670;DHT22;51080;51.690;5.174;2022-08-21T06:13:30;14.00;75.90
64670;DHT22;51080;51.690;5.174;2022-08-21T06:19:15;14.20;75.20
64670;DHT22;51080;51.690;5.174;2022-08-21T06:24:59;14.30;75.10
64670;DHT22;51080;51.690;5.174;2022-08-21T06:30:44;14.40;75.70
64670;DHT22;51080;51.690;5.174;2022-08-21T06:36:58;14.60;76.10
64670;DHT22;51080;51.690;5.174;2022-08-21T06:42:44;14.70;75.70
64670;DHT22;51080;51.690;5.174;2022-08-21T06:48:28;15.00;76.40
64670;DHT22;51080;51.690;5.174;2022-08-21T06:54:12;15.10;76.30
64670;DHT22;51080;51.690;5.174;2022-08-21T06:59:57;15.40;77.90
64670;DHT22;51080;51.690;5.174;2022-08-21T07:05:42;15.70;77.70
64670;DHT22;51080;51.690;5.174;2022-08-21T07:11:26;15.90;77.40
64670;DHT22;51080;51.690;5.174;2022-08-21T07:17:12;16.20;77.40
64670;DHT22;51080;51.690;5.174;2022-08-21T07:23:02;16.40;77.00
64670;DHT22;51080;51.690;5.174;2022-08-21T07:28:48;16.40;77.20
64670;DHT22;51080;51.690;5.174;2022-08-21T07:34:35;16.60;76.10
64670;DHT22;51080;51.690;5.174;2022-08-21T07:40:21;16.80;76.50
64670;DHT22;51080;51.690;5.174;2022-08-21T07:46:07;16.90;75.80
64670;DHT22;51080;51.690;5.174;2022-08-21T07:51:52;17.10;76.00
64670;DHT22;51080;51.690;5.174;2022-08-21T07:57:37;17.20;76.20
64670;DHT22;51080;51.690;5.174;2022-08-21T08:03:22;17.40;75.20
64670;DHT22;51080;51.690;5.174;2022-08-21T08:09:07;17.70;74.80
64670;DHT22;51080;51.690;5.174;2022-08-21T08:14:51;17.90;74.70
64670;DHT22;51080;51.690;5.174;2022-08-21T08:20:35;18.10;73.80
64670;DHT22;51080;51.690;5.174;2022-08-21T08:26:20;18.40;73.60
64670;DHT22;51080;51.690;5.174;2022-08-21T08:32:05;18.60;72.70
64670;DHT22;51080;51.690;5.174;2022-08-21T08:37:51;18.90;71.90
64670;DHT22;51080;51.690;5.174;2022-08-21T08:43:36;19.20;70.90
64670;DHT22;51080;51.690;5.174;2022-08-21T08:49:26;19.60;69.60
64670;DHT22;51080;51.690;5.174;2022-08-21T08:55:30;21.60;64.80
64670;DHT22;51080;51.690;5.174;2022-08-21T09:01:18;24.60;55.90
64670;DHT22;51080;51.690;5.174;2022-08-21T09:13:16;26.80;50.90
64670;DHT22;51080;51.690;5.174;2022-08-21T09:30:47;28.20;47.90
64670;DHT22;51080;51.690;5.174;2022-08-21T09:36:44;28.50;46.40
64670;DHT22;51080;51.690;5.174;2022-08-21T09:42:31;27.40;46.60
64670;DHT22;51080;51.690;5.174;2022-08-21T09:48:48;27.30;48.80
64670;DHT22;51080;51.690;5.174;2022-08-21T09:54:37;27.50;48.20
64670;DHT22;51080;51.690;5.174;2022-08-21T10:00:29;28.70;45.80
64670;DHT22;51080;51.690;5.174;2022-08-21T10:06:26;28.60;44.90
64670;DHT22;51080;51.690;5.174;2022-08-21T10:12:22;28.90;43.70
64670;DHT22;51080;51.690;5.174;2022-08-21T10:18:30;29.60;42.20
64670;DHT22;51080;51.690;5.174;2022-08-21T10:24:42;30.60;42.30
64670;DHT22;51080;51.690;5.174;2022-08-21T10:36:42;33.20;36.60
64670;DHT22;51080;51.690;5.174;2022-08-21T10:48:56;33.60;36.10
64670;DHT22;51080;51.690;5.174;2022-08-21T11:00:47;33.10;37.00
64670;DHT22;51080;51.690;5.174;2022-08-21T11:06:37;31.50;38.50
64670;DHT22;51080;51.690;5.174;2022-08-21T11:12:40;29.20;41.80
64670;DHT22;51080;51.690;5.174;2022-08-21T11:18:50;30.60;39.30
64670;DHT22;51080;51.690;5.174;2022-08-21T11:24:50;31.00;36.40
64670;DHT22;51080;51.690;5.174;2022-08-21T11:37:01;33.20;36.10
64670;DHT22;51080;51.690;5.174;2022-08-21T12:01:40;34.20;33.00
64670;DHT22;51080;51.690;5.174;2022-08-21T12:07:36;35.40;32.80
64670;DHT22;51080;51.690;5.174;2022-08-21T12:13:29;34.80;31.70
64670;DHT22;51080;51.690;5.174;2022-08-21T12:19:29;36.50;30.60
64670;DHT22;51080;51.690;5.174;2022-08-21T12:25:19;34.40;33.50
64670;DHT22;51080;51.690;5.174;2022-08-21T12:31:23;35.80;30.10
64670;DHT22;51080;51.690;5.174;2022-08-21T12:43:40;35.90;30.50
64670;DHT22;51080;51.690;5.174;2022-08-21T12:49:43;35.20;30.30
64670;DHT22;51080;51.690;5.174;2022-08-21T12:55:33;34.30;31.10
64670;DHT22;51080;51.690;5.174;2022-08-21T13:07:36;33.80;32.10
64670;DHT22;51080;51.690;5.174;2022-08-21T13:13:26;37.20;29.20
64670;DHT22;51080;51.690;5.174;2022-08-21T13:19:17;36.70;28.30
64670;DHT22;51080;51.690;5.174;2022-08-21T13:25:10;36.30;29.30
64670;DHT22;51080;51.690;5.174;2022-08-21T13:30:58;36.70;29.20
64670;DHT22;51080;51.690;5.174;2022-08-21T13:36:44;36.40;29.90
64670;DHT22;51080;51.690;5.174;2022-08-21T13:42:28;33.20;32.50
64670;DHT22;51080;51.690;5.174;2022-08-21T13:48:13;31.10;34.70
64670;DHT22;51080;51.690;5.174;2022-08-21T13:54:14;30.00;35.90
64670;DHT22;51080;51.690;5.174;2022-08-21T14:00:24;32.40;33.20
64670;DHT22;51080;51.690;5.174;2022-08-21T14:06:21;34.50;30.80
64670;DHT22;51080;51.690;5.174;2022-08-21T14:12:32;35.30;30.40
64670;DHT22;51080;51.690;5.174;2022-08-21T14:18:25;36.60;29.70
64670;DHT22;51080;51.690;5.174;2022-08-21T14:24:24;37.50;28.30
64670;DHT22;51080;51.690;5.174;2022-08-21T14:30:11;34.60;30.90
64670;DHT22;51080;51.690;5.174;2022-08-21T14:36:04;35.10;30.70
64670;DHT22;51080;51.690;5.174;2022-08-21T14:41:53;33.50;32.90
64670;DHT22;51080;51.690;5.174;2022-08-21T14:47:43;31.60;33.90
64670;DHT22;51080;51.690;5.174;2022-08-21T14:53:30;31.20;34.70
64670;DHT22;51080;51.690;5.174;2022-08-21T14:59:44;29.80;36.80
64670;DHT22;51080;51.690;5.174;2022-08-21T15:05:41;29.30;37.80
64670;DHT22;51080;51.690;5.174;2022-08-21T15:11:28;29.10;37.90
64670;DHT22;51080;51.690;5.174;2022-08-21T15:17:13;29.40;37.80
64670;DHT22;51080;51.690;5.174;2022-08-21T15:22:57;29.40;37.60
64670;DHT22;51080;51.690;5.174;2022-08-21T15:28:42;29.40;38.10
64670;DHT22;51080;51.690;5.174;2022-08-21T15:34:30;30.50;35.50
64670;DHT22;51080;51.690;5.174;2022-08-21T15:40:16;31.90;34.50
64670;DHT22;51080;51.690;5.174;2022-08-21T15:46:03;32.00;34.70
64670;DHT22;51080;51.690;5.174;2022-08-21T15:51:51;31.90;34.70
64670;DHT22;51080;51.690;5.174;2022-08-21T15:57:36;30.60;35.50
64670;DHT22;51080;51.690;5.174;2022-08-21T16:03:20;29.40;36.90
64670;DHT22;51080;51.690;5.174;2022-08-21T16:09:05;28.40;38.00
64670;DHT22;51080;51.690;5.174;2022-08-21T16:14:50;27.90;39.50
64670;DHT22;51080;51.690;5.174;2022-08-21T16:20:36;27.40;40.00
64670;DHT22;51080;51.690;5.174;2022-08-21T16:26:23;27.10;40.70
64670;DHT22;51080;51.690;5.174;2022-08-21T16:32:10;26.90;41.00
64670;DHT22;51080;51.690;5.174;2022-08-21T16:37:56;26.40;41.40
64670;DHT22;51080;51.690;5.174;2022-08-21T16:43:43;26.10;41.80
64670;DHT22;51080;51.690;5.174;2022-08-21T16:49:27;25.90;42.00
64670;DHT22;51080;51.690;5.174;2022-08-21T16:55:12;25.50;42.30
64670;DHT22;51080;51.690;5.174;2022-08-21T17:00:58;25.10;42.60
64670;DHT22;51080;51.690;5.174;2022-08-21T17:06:43;24.90;42.70
64670;DHT22;51080;51.690;5.174;2022-08-21T17:12:32;24.70;43.60
64670;DHT22;51080;51.690;5.174;2022-08-21T17:18:19;24.60;43.80
64670;DHT22;51080;51.690;5.174;2022-08-21T17:24:04;24.50;44.30
64670;DHT22;51080;51.690;5.174;2022-08-21T17:29:49;24.40;45.00
64670;DHT22;51080;51.690;5.174;2022-08-21T17:35:37;24.30;45.50
64670;DHT22;51080;51.690;5.174;2022-08-21T17:41:24;24.20;45.90
64670;DHT22;51080;51.690;5.174;2022-08-21T17:47:12;24.00;45.60
64670;DHT22;51080;51.690;5.174;2022-08-21T17:53:01;23.80;45.20
64670;DHT22;51080;51.690;5.174;2022-08-21T17:58:49;23.70;45.00
64670;DHT22;51080;51.690;5.174;2022-08-21T18:04:37;23.50;45.30
64670;DHT22;51080;51.690;5.174;2022-08-21T18:10:24;23.30;45.40
64670;DHT22;51080;51.690;5.174;2022-08-21T18:16:12;23.10;46.00
64670;DHT22;51080;51.690;5.174;2022-08-21T18:22:03;22.80;46.10
64670;DHT22;51080;51.690;5.174;2022-08-21T18:27:49;22.70;46.30
64670;DHT22;51080;51.690;5.174;2022-08-21T18:33:34;22.50;47.00
64670;DHT22;51080;51.690;5.174;2022-08-21T18:39:23;22.40;47.70
64670;DHT22;51080;51.690;5.174;2022-08-21T18:45:11;22.20;47.80
64670;DHT22;51080;51.690;5.174;2022-08-21T18:50:59;22.10;48.30
64670;DHT22;51080;51.690;5.174;2022-08-21T18:56:47;21.90;49.00
64670;DHT22;51080;51.690;5.174;2022-08-21T19:02:38;21.70;49.10
64670;DHT22;51080;51.690;5.174;2022-08-21T19:08:27;21.60;49.80
64670;DHT22;51080;51.690;5.174;2022-08-21T19:14:16;21.50;49.80
64670;DHT22;51080;51.690;5.174;2022-08-21T19:20:10;21.40;50.00
64670;DHT22;51080;51.690;5.174;2022-08-21T19:26:00;21.30;50.60
64670;DHT22;51080;51.690;5.174;2022-08-21T19:31:47;21.20;51.10
64670;DHT22;51080;51.690;5.174;2022-08-21T19:37:36;21.10;51.70
64670;DHT22;51080;51.690;5.174;2022-08-21T19:43:24;20.90;52.30
64670;DHT22;51080;51.690;5.174;2022-08-21T19:49:14;20.80;52.50
64670;DHT22;51080;51.690;5.174;2022-08-21T19:55:05;20.60;52.90
64670;DHT22;51080;51.690;5.174;2022-08-21T20:00:52;20.40;53.50
64670;DHT22;51080;51.690;5.174;2022-08-21T20:06:41;20.30;53.90
64670;DHT22;51080;51.690;5.174;2022-08-21T20:12:25;20.10;54.30
64670;DHT22;51080;51.690;5.174;2022-08-21T20:18:10;20.00;54.90
64670;DHT22;51080;51.690;5.174;2022-08-21T20:23:55;19.80;55.60
64670;DHT22;51080;51.690;5.174;2022-08-21T20:29:43;19.70;56.00
64670;DHT22;51080;51.690;5.174;2022-08-21T20:35:27;19.60;56.30
64670;DHT22;51080;51.690;5.174;2022-08-21T20:41:12;19.60;56.50
64670;DHT22;51080;51.690;5.174;2022-08-21T20:46:57;19.50;57.20
64670;DHT22;51080;51.690;5.174;2022-08-21T20:52:44;19.50;57.30
64670;DHT22;51080;51.690;5.174;2022-08-21T20:58:41;19.40;57.70
64670;DHT22;51080;51.690;5.174;2022-08-21T21:04:35;19.40;58.00
64670;DHT22;51080;51.690;5.174;2022-08-21T21:16:31;19.40;58.60
64670;DHT22;51080;51.690;5.174;2022-08-21T21:22:20;19.40;58.80
64670;DHT22;51080;51.690;5.174;2022-08-21T21:28:20;19.30;59.30
64670;DHT22;51080;51.690;5.174;2022-08-21T21:34:06;19.10;59.70
64670;DHT22;51080;51.690;5.174;2022-08-21T22:05:02;18.70;61.00
64670;DHT22;51080;51.690;5.174;2022-08-21T22:11:01;18.70;61.10
64670;DHT22;51080;51.690;5.174;2022-08-21T22:16:49;18.70;61.40
64670;DHT22;51080;51.690;5.174;2022-08-21T22:22:34;18.60;61.80
64670;DHT22;51080;51.690;5.174;2022-08-21T22:28:24;18.60;62.20
64670;DHT22;51080;51.690;5.174;2022-08-21T22:34:18;18.50;62.70
64670;DHT22;51080;51.690;5.174;2022-08-21T22:40:07;18.40;63.00
64670;DHT22;51080;51.690;5.174;2022-08-21T22:46:02;18.40;63.00
64670;DHT22;51080;51.690;5.174;2022-08-21T22:51:47;18.40;62.90
64670;DHT22;51080;51.690;5.174;2022-08-21T22:57:34;18.40;63.20
64670;DHT22;51080;51.690;5.174;2022-08-21T23:03:43;18.40;63.30
64670;DHT22;51080;51.690;5.174;2022-08-21T23:09:34;18.30;63.60
64670;DHT22;51080;51.690;5.174;2022-08-21T23:15:19;18.30;63.50
64670;DHT22;51080;51.690;5.174;2022-08-21T23:21:24;18.30;63.60
64670;DHT22;51080;51.690;5.174;2022-08-21T23:27:30;18.30;63.60
64670;DHT22;51080;51.690;5.174;2022-08-21T23:40:07;18.30;64.20
64670;DHT22;51080;51.690;5.174;2022-08-21T23:46:13;18.30;64.20
64670;DHT22;51080;51.690;5.174;2022-08-21T23:52:11;18.30;64.10
